createdAt,value
2022-08-19T00:00:31.172Z,21.06
2022-08-19T00:01:38.046Z,21.04
2022-08-19T00:02:49.940Z,21.03
2022-08-19T00:03:45.633Z,21.01
2022-08-19T00:04:48.041Z,21.02
2022-08-19T00:05:50.256Z,21.00
2022-08-19T00:06:52.987Z,20.87
2022-08-19T00:07:55.574Z,21.03
2022-08-19T00:08:59.385Z,21.04
2022-08-19T00:10:01.847Z,21.02
2022-08-19T00:11:04.380Z,21.01
2022-08-19T00:12:07.473Z,20.96
2022-08-19T00:13:09.820Z,20.95
2022-08-19T00:14:14.877Z,20.96
2022-08-19T00:15:20.205Z,20.88
2022-08-19T00:16:25.179Z,20.90
2022-08-19T00:17:28.674Z,20.86
2022-08-19T00:18:31.809Z,20.58
2022-08-19T00:19:35.711Z,20.66
2022-08-19T00:20:39.311Z,20.47
2022-08-19T00:21:41.964Z,20.60
2022-08-19T00:22:46.493Z,20.62
2022-08-19T00:23:48.870Z,20.36
2022-08-19T00:24:51.177Z,20.31
2022-08-19T00:25:54.095Z,20.32
2022-08-19T00:26:56.868Z,20.38
2022-08-19T00:28:00.063Z,20.34
2022-08-19T00:29:03.437Z,20.27
2022-08-19T00:30:08.450Z,20.08
2022-08-19T00:31:11.026Z,20.19
2022-08-19T00:32:13.377Z,20.22
2022-08-19T00:33:16.347Z,20.34
2022-08-19T00:34:18.913Z,20.35
2022-08-19T00:35:21.911Z,20.23
2022-08-19T00:36:26.025Z,20.18
2022-08-19T00:37:28.369Z,20.11
2022-08-19T00:38:38.032Z,20.10
2022-08-19T00:39:35.978Z,19.92
2022-08-19T00:40:38.774Z,20.08
2022-08-19T00:41:42.280Z,20.16
2022-08-19T00:42:44.882Z,20.01
2022-08-19T00:44:10.495Z,20.01
2022-08-19T00:45:16.435Z,19.86
2022-08-19T00:46:19.322Z,20.04
2022-08-19T00:47:21.773Z,19.98
2022-08-19T00:48:24.033Z,19.99
2022-08-19T00:49:39.202Z,20.06
2022-08-19T00:50:51.717Z,20.11
2022-08-19T00:51:51.519Z,19.88
2022-08-19T00:52:54.325Z,19.92
2022-08-19T00:53:58.981Z,19.97
2022-08-19T00:55:05.338Z,19.83
2022-08-19T00:56:08.690Z,19.93
2022-08-19T00:57:14.570Z,19.88
2022-08-19T00:58:20.326Z,19.97
2022-08-19T01:00:02.014Z,20.01
2022-08-19T01:00:30.121Z,20.00
2022-08-19T01:01:33.163Z,19.95
2022-08-19T01:02:35.760Z,19.90
2022-08-19T01:03:56.808Z,19.76
2022-08-19T01:04:43.087Z,19.95
2022-08-19T01:05:47.994Z,19.76
2022-08-19T01:06:50.580Z,19.93
2022-08-19T01:07:54.269Z,20.07
2022-08-19T01:08:56.727Z,20.00
2022-08-19T01:10:01.244Z,20.13
2022-08-19T01:11:05.242Z,20.05
2022-08-19T01:12:08.732Z,20.07
2022-08-19T01:13:13.446Z,20.08
2022-08-19T01:14:16.285Z,19.98
2022-08-19T01:15:22.167Z,19.90
2022-08-19T01:16:28.952Z,19.91
2022-08-19T01:17:31.809Z,19.80
2022-08-19T01:18:37.659Z,19.58
2022-08-19T01:19:44.377Z,19.68
2022-08-19T01:20:47.804Z,19.64
2022-08-19T01:22:14.127Z,19.58
2022-08-19T01:23:11.780Z,19.40
2022-08-19T01:24:14.679Z,19.40
2022-08-19T01:25:20.492Z,19.48
2022-08-19T01:26:25.319Z,19.53
2022-08-19T01:27:44.168Z,19.61
2022-08-19T01:28:51.852Z,19.53
2022-08-19T01:29:55.113Z,19.46
2022-08-19T01:30:58.723Z,19.44
2022-08-19T01:32:02.114Z,19.58
2022-08-19T01:33:04.395Z,19.67
2022-08-19T01:34:07.748Z,19.73
2022-08-19T01:35:12.077Z,19.69
2022-08-19T01:36:25.495Z,19.47
2022-08-19T01:37:27.982Z,19.41
2022-08-19T01:38:30.312Z,19.40
2022-08-19T01:39:32.849Z,19.51
2022-08-19T01:40:37.828Z,19.64
2022-08-19T01:41:40.433Z,19.49
2022-08-19T01:42:44.576Z,19.49
2022-08-19T01:44:09.938Z,19.49
2022-08-19T01:44:51.305Z,19.29
2022-08-19T01:45:53.609Z,19.29
2022-08-19T01:46:56.295Z,19.35
2022-08-19T01:48:02.034Z,19.29
2022-08-19T01:49:05.829Z,19.20
2022-08-19T01:50:10.838Z,19.33
2022-08-19T01:51:14.023Z,19.29
2022-08-19T01:52:16.482Z,19.34
2022-08-19T01:53:18.848Z,19.39
2022-08-19T01:54:27.535Z,19.48
2022-08-19T01:55:28.489Z,19.53
2022-08-19T01:56:31.156Z,19.39
2022-08-19T01:57:33.737Z,19.33
2022-08-19T01:58:42.505Z,19.19
2022-08-19T01:59:46.024Z,19.19
2022-08-19T02:00:48.692Z,19.23
2022-08-19T02:01:51.022Z,19.08
2022-08-19T02:02:54.001Z,19.24
2022-08-19T02:03:56.897Z,19.15
2022-08-19T02:05:00.602Z,19.25
2022-08-19T02:06:03.804Z,19.25
2022-08-19T02:07:07.386Z,19.19
2022-08-19T02:08:10.451Z,19.36
2022-08-19T02:09:13.039Z,19.23
2022-08-19T02:10:19.442Z,19.15
2022-08-19T02:11:25.123Z,19.15
2022-08-19T02:12:27.583Z,19.26
2022-08-19T02:13:30.462Z,19.33
2022-08-19T02:14:35.399Z,19.32
2022-08-19T02:15:38.238Z,19.19
2022-08-19T02:16:41.648Z,19.22
2022-08-19T02:17:44.172Z,19.21
2022-08-19T02:18:47.288Z,19.05
2022-08-19T02:19:49.646Z,19.15
2022-08-19T02:20:52.316Z,19.05
2022-08-19T02:21:54.999Z,19.18
2022-08-19T02:22:57.567Z,18.99
2022-08-19T02:24:01.573Z,19.14
2022-08-19T02:25:04.741Z,19.24
2022-08-19T02:26:07.710Z,19.23
2022-08-19T02:27:10.339Z,19.31
2022-08-19T02:28:16.746Z,19.32
2022-08-19T02:29:17.877Z,19.29
2022-08-19T02:30:22.996Z,19.30
2022-08-19T02:31:25.892Z,19.35
2022-08-19T02:32:28.543Z,19.34
2022-08-19T02:33:30.903Z,19.19
2022-08-19T02:34:34.205Z,19.37
2022-08-19T02:35:36.656Z,19.54
2022-08-19T02:36:42.410Z,19.49
2022-08-19T02:37:44.768Z,19.45
2022-08-19T02:38:54.513Z,19.35
2022-08-19T02:39:52.231Z,19.41
2022-08-19T02:41:01.384Z,19.47
2022-08-19T02:42:05.738Z,19.25
2022-08-19T02:43:09.636Z,19.02
2022-08-19T02:44:26.607Z,19.09
2022-08-19T02:45:18.686Z,18.90
2022-08-19T02:46:25.977Z,19.00
2022-08-19T02:47:28.510Z,18.81
2022-08-19T02:48:30.803Z,18.88
2022-08-19T02:49:34.749Z,18.65
2022-08-19T02:50:40.856Z,18.89
2022-08-19T02:51:46.043Z,18.92
2022-08-19T02:52:48.803Z,18.90
2022-08-19T02:53:52.142Z,19.02
2022-08-19T02:54:54.599Z,18.92
2022-08-19T02:55:57.251Z,18.95
2022-08-19T02:57:00.041Z,18.95
2022-08-19T02:58:02.507Z,18.96
2022-08-19T02:59:07.428Z,19.08
2022-08-19T03:00:11.924Z,19.04
2022-08-19T03:01:23.823Z,19.16
2022-08-19T03:02:26.312Z,19.03
2022-08-19T03:03:28.756Z,19.11
2022-08-19T03:04:31.118Z,19.12
2022-08-19T03:05:46.927Z,19.02
2022-08-19T03:08:11.384Z,19.15
2022-08-19T03:09:14.684Z,19.02
2022-08-19T03:10:17.950Z,18.87
2022-08-19T03:11:23.203Z,18.89
2022-08-19T03:12:25.861Z,19.11
2022-08-19T03:13:28.175Z,19.13
2022-08-19T03:14:34.566Z,19.05
2022-08-19T03:15:43.411Z,18.88
2022-08-19T03:16:49.652Z,18.97
2022-08-19T03:17:52.097Z,18.95
2022-08-19T03:18:56.202Z,18.82
2022-08-19T03:19:58.870Z,18.83
2022-08-19T03:21:02.844Z,18.70
2022-08-19T03:22:05.436Z,18.85
2022-08-19T03:23:07.798Z,18.76
2022-08-19T03:24:11.459Z,18.78
2022-08-19T03:25:13.959Z,18.97
2022-08-19T03:26:17.549Z,18.92
2022-08-19T03:27:20.120Z,18.97
2022-08-19T03:28:22.482Z,18.68
2022-08-19T03:29:30.822Z,18.68
2022-08-19T03:30:34.473Z,18.75
2022-08-19T03:31:43.584Z,18.63
2022-08-19T03:32:45.379Z,18.56
2022-08-19T03:33:47.833Z,18.85
2022-08-19T03:34:52.117Z,18.75
2022-08-19T03:36:06.970Z,18.70
2022-08-19T03:37:11.754Z,18.70
2022-08-19T03:38:16.082Z,18.79
2022-08-19T03:39:18.633Z,18.84
2022-08-19T03:40:23.073Z,18.79
2022-08-19T03:42:49.437Z,18.91
2022-08-19T03:43:52.803Z,18.80
2022-08-19T03:44:55.386Z,18.78
2022-08-19T03:46:03.037Z,18.76
2022-08-19T03:47:05.677Z,18.84
2022-08-19T03:48:08.070Z,19.01
2022-08-19T03:49:10.544Z,18.82
2022-08-19T03:50:16.819Z,18.78
2022-08-19T03:51:30.733Z,18.86
2022-08-19T03:52:26.552Z,18.99
2022-08-19T03:53:30.337Z,18.99
2022-08-19T03:54:32.798Z,19.07
2022-08-19T03:55:41.208Z,18.96
2022-08-19T03:56:45.508Z,19.01
2022-08-19T03:57:47.946Z,18.86
2022-08-19T03:58:50.966Z,19.03
2022-08-19T03:59:53.392Z,19.11
2022-08-19T04:00:57.427Z,19.10
2022-08-19T04:02:02.756Z,19.22
2022-08-19T04:03:05.305Z,19.01
2022-08-19T04:04:07.583Z,19.06
2022-08-19T04:05:11.801Z,19.05
2022-08-19T04:06:20.387Z,19.06
2022-08-19T04:07:23.268Z,19.02
2022-08-19T04:08:25.526Z,19.31
2022-08-19T04:09:28.714Z,19.36
2022-08-19T04:10:31.155Z,19.26
2022-08-19T04:11:43.725Z,19.32
2022-08-19T04:12:44.683Z,19.13
2022-08-19T04:13:47.348Z,19.20
2022-08-19T04:14:49.748Z,19.12
2022-08-19T04:15:52.092Z,19.12
2022-08-19T04:16:54.790Z,19.10
2022-08-19T04:17:57.293Z,19.33
2022-08-19T04:19:04.829Z,19.21
2022-08-19T04:20:08.523Z,19.31
2022-08-19T04:21:14.350Z,19.34
2022-08-19T04:22:16.918Z,19.33
2022-08-19T04:23:19.549Z,19.36
2022-08-19T04:24:23.575Z,19.32
2022-08-19T04:25:25.994Z,19.49
2022-08-19T04:26:33.451Z,19.40
2022-08-19T04:27:35.798Z,19.54
2022-08-19T04:28:38.423Z,19.70
2022-08-19T04:29:40.890Z,19.81
2022-08-19T04:30:46.565Z,19.95
2022-08-19T04:31:50.108Z,19.94
2022-08-19T04:32:52.843Z,19.95
2022-08-19T04:33:57.239Z,19.94
2022-08-19T04:35:02.423Z,19.99
2022-08-19T04:36:04.233Z,20.03
2022-08-19T04:37:07.042Z,20.10
2022-08-19T04:38:10.070Z,20.13
2022-08-19T04:40:25.254Z,20.28
2022-08-19T04:41:28.098Z,20.13
2022-08-19T04:42:30.897Z,20.00
2022-08-19T04:43:36.031Z,20.25
2022-08-19T04:44:44.968Z,20.04
2022-08-19T04:45:46.443Z,20.22
2022-08-19T04:46:51.524Z,20.21
2022-08-19T04:47:58.729Z,20.25
2022-08-19T04:49:09.096Z,20.22
2022-08-19T04:50:08.507Z,20.37
2022-08-19T04:51:12.985Z,20.46
2022-08-19T04:52:15.600Z,20.62
2022-08-19T04:53:18.255Z,20.62
2022-08-19T04:54:34.775Z,20.70
2022-08-19T04:55:27.374Z,20.83
2022-08-19T04:56:30.160Z,20.81
2022-08-19T04:57:32.534Z,20.95
2022-08-19T04:58:36.317Z,21.09
2022-08-19T04:59:39.554Z,21.16
2022-08-19T05:00:42.202Z,21.37
2022-08-19T05:01:44.904Z,21.49
2022-08-19T05:02:47.333Z,21.55
2022-08-19T05:03:50.389Z,21.12
2022-08-19T05:04:58.018Z,21.49
2022-08-19T05:06:08.517Z,21.74
2022-08-19T05:07:11.082Z,21.33
2022-08-19T05:08:15.498Z,21.42
2022-08-19T05:09:18.874Z,21.79
2022-08-19T05:10:22.371Z,21.93
2022-08-19T05:11:28.351Z,22.13
2022-08-19T05:12:30.779Z,22.21
2022-08-19T05:13:33.414Z,22.26
2022-08-19T05:14:35.823Z,22.33
2022-08-19T05:15:38.177Z,22.51
2022-08-19T05:16:41.070Z,22.49
2022-08-19T05:17:43.322Z,22.42
2022-08-19T05:18:46.475Z,22.43
2022-08-19T05:19:48.753Z,22.37
2022-08-19T05:20:51.403Z,22.07
2022-08-19T05:21:54.688Z,22.08
2022-08-19T05:22:57.474Z,22.32
2022-08-19T05:24:00.448Z,22.40
2022-08-19T05:25:13.037Z,22.27
2022-08-19T05:26:11.898Z,21.76
2022-08-19T05:27:14.909Z,21.72
2022-08-19T05:28:17.672Z,21.85
2022-08-19T05:29:22.464Z,22.13
2022-08-19T05:30:33.379Z,22.48
2022-08-19T05:31:30.632Z,22.48
2022-08-19T05:32:34.766Z,22.31
2022-08-19T05:33:37.476Z,22.12
2022-08-19T05:34:39.782Z,22.23
2022-08-19T05:35:41.999Z,22.26
2022-08-19T05:36:45.881Z,22.07
2022-08-19T05:37:48.272Z,22.67
2022-08-19T05:38:53.183Z,22.69
2022-08-19T05:39:55.798Z,23.15
2022-08-19T05:40:58.644Z,22.68
2022-08-19T05:42:03.750Z,22.70
2022-08-19T05:43:07.853Z,22.84
2022-08-19T05:44:10.595Z,23.37
2022-08-19T05:45:13.091Z,23.50
2022-08-19T05:46:19.138Z,23.17
2022-08-19T05:47:23.614Z,23.59
2022-08-19T05:48:26.433Z,23.67
2022-08-19T05:49:29.695Z,23.71
2022-08-19T05:50:32.168Z,23.86
2022-08-19T05:51:36.464Z,23.21
2022-08-19T05:52:39.205Z,23.74
2022-08-19T05:53:43.653Z,23.35
2022-08-19T05:54:46.976Z,23.61
2022-08-19T05:55:50.714Z,23.81
2022-08-19T05:56:54.033Z,23.50
2022-08-19T05:57:56.459Z,22.85
2022-08-19T05:58:59.321Z,22.57
2022-08-19T06:00:04.203Z,23.01
2022-08-19T06:01:12.178Z,23.13
2022-08-19T06:02:14.607Z,23.24
2022-08-19T06:03:17.332Z,23.73
2022-08-19T06:04:20.596Z,23.44
2022-08-19T06:05:22.866Z,23.24
2022-08-19T06:06:25.463Z,23.24
2022-08-19T06:07:28.290Z,23.30
2022-08-19T06:08:33.682Z,23.05
2022-08-19T06:09:35.550Z,23.29
2022-08-19T06:10:37.951Z,23.50
2022-08-19T06:11:43.824Z,23.63
2022-08-19T06:12:46.275Z,23.52
2022-08-19T06:13:52.293Z,23.99
2022-08-19T06:15:01.169Z,23.79
2022-08-19T06:16:01.317Z,23.96
2022-08-19T06:17:07.070Z,24.21
2022-08-19T06:18:08.318Z,24.42
2022-08-19T06:19:16.611Z,24.12
2022-08-19T06:20:39.768Z,23.70
2022-08-19T06:21:29.077Z,23.59
2022-08-19T06:22:31.747Z,24.18
2022-08-19T06:23:35.194Z,24.72
2022-08-19T06:24:39.162Z,23.62
2022-08-19T06:25:43.581Z,23.84
2022-08-19T06:28:14.083Z,24.04
2022-08-19T06:28:59.530Z,23.98
2022-08-19T06:30:04.923Z,24.04
2022-08-19T06:31:10.401Z,23.59
2022-08-19T06:32:14.851Z,24.07
2022-08-19T06:33:17.346Z,23.97
2022-08-19T06:34:26.407Z,24.10
2022-08-19T06:35:28.957Z,24.21
2022-08-19T06:36:34.984Z,24.24
2022-08-19T06:37:43.689Z,23.73
2022-08-19T06:38:45.298Z,23.40
2022-08-19T06:39:49.899Z,23.29
2022-08-19T06:41:02.444Z,23.99
2022-08-19T06:42:07.921Z,24.19
2022-08-19T06:43:12.286Z,23.90
2022-08-19T06:44:18.564Z,23.69
2022-08-19T06:45:25.166Z,24.07
2022-08-19T06:46:29.701Z,24.20
2022-08-19T06:47:35.204Z,24.52
2022-08-19T06:48:39.506Z,24.55
2022-08-19T06:49:43.074Z,24.33
2022-08-19T06:50:47.477Z,24.81
2022-08-19T06:51:50.776Z,25.04
2022-08-19T06:52:54.521Z,25.26
2022-08-19T06:53:58.024Z,24.97
2022-08-19T06:55:01.484Z,25.32
2022-08-19T06:56:05.930Z,25.02
2022-08-19T06:57:11.987Z,25.36
2022-08-19T06:58:14.530Z,25.68
2022-08-19T06:59:21.620Z,26.04
2022-08-19T07:00:25.526Z,25.76
2022-08-19T07:01:28.683Z,25.53
2022-08-19T07:02:31.463Z,25.21
2022-08-19T07:03:35.624Z,24.98
2022-08-19T07:04:42.185Z,24.99
2022-08-19T07:05:45.492Z,25.04
2022-08-19T07:06:55.321Z,24.95
2022-08-19T07:07:54.094Z,25.48
2022-08-19T07:08:58.993Z,25.88
2022-08-19T07:10:03.704Z,26.19
2022-08-19T07:11:11.287Z,25.09
2022-08-19T07:12:14.466Z,25.82
2022-08-19T07:13:17.012Z,25.62
2022-08-19T07:14:25.594Z,25.33
2022-08-19T07:15:28.030Z,25.31
2022-08-19T07:16:31.949Z,24.94
2022-08-19T07:17:34.839Z,25.32
2022-08-19T07:18:38.366Z,25.63
2022-08-19T07:19:41.936Z,24.98
2022-08-19T07:20:47.020Z,24.89
2022-08-19T07:21:51.700Z,24.88
2022-08-19T07:22:55.412Z,24.81
2022-08-19T07:24:02.914Z,24.99
2022-08-19T07:25:08.081Z,24.99
2022-08-19T07:26:15.179Z,25.04
2022-08-19T07:27:17.713Z,25.00
2022-08-19T07:28:24.391Z,25.13
2022-08-19T07:29:25.728Z,25.23
2022-08-19T07:30:31.573Z,25.68
2022-08-19T07:31:37.124Z,25.45
2022-08-19T07:32:40.550Z,25.19
2022-08-19T07:33:42.963Z,24.72
2022-08-19T07:34:46.450Z,24.98
2022-08-19T07:35:50.405Z,25.03
2022-08-19T07:36:54.260Z,25.42
2022-08-19T07:37:56.727Z,25.58
2022-08-19T07:39:01.902Z,25.89
2022-08-19T07:40:08.122Z,26.10
2022-08-19T07:41:13.589Z,25.62
2022-08-19T07:42:16.699Z,25.29
2022-08-19T07:43:18.975Z,25.11
2022-08-19T07:44:22.665Z,24.90
2022-08-19T07:45:25.266Z,24.90
2022-08-19T07:46:33.677Z,24.69
2022-08-19T07:47:47.915Z,24.93
2022-08-19T07:48:43.259Z,25.02
2022-08-19T07:49:45.654Z,25.23
2022-08-19T07:50:48.004Z,25.01
2022-08-19T07:53:03.535Z,25.92
2022-08-19T07:54:05.919Z,25.70
2022-08-19T07:55:42.086Z,25.82
2022-08-19T07:56:20.249Z,25.69
2022-08-19T07:57:25.013Z,25.15
2022-08-19T07:58:27.315Z,25.05
2022-08-19T07:59:30.173Z,25.05
2022-08-19T08:00:34.710Z,24.95
2022-08-19T08:01:41.839Z,25.07
2022-08-19T08:02:42.467Z,25.10
2022-08-19T08:03:45.525Z,25.58
2022-08-19T08:04:49.638Z,25.82
2022-08-19T08:05:51.830Z,26.15
2022-08-19T08:06:54.666Z,26.13
2022-08-19T08:07:57.654Z,26.27
2022-08-19T08:09:01.161Z,25.51
2022-08-19T08:10:06.421Z,25.11
2022-08-19T08:11:11.077Z,25.60
2022-08-19T08:12:33.617Z,25.77
2022-08-19T08:13:25.505Z,25.74
2022-08-19T08:14:44.702Z,25.92
2022-08-19T08:15:49.123Z,26.14
2022-08-19T08:16:57.633Z,26.02
2022-08-19T08:18:01.757Z,25.93
2022-08-19T08:19:18.211Z,26.04
2022-08-19T08:20:14.459Z,26.17
2022-08-19T08:21:17.505Z,26.05
2022-08-19T08:22:21.508Z,26.01
2022-08-19T08:23:24.259Z,26.10
2022-08-19T08:24:29.926Z,26.28
2022-08-19T08:25:35.315Z,26.05
2022-08-19T08:26:38.509Z,26.37
2022-08-19T08:27:45.196Z,26.49
2022-08-19T08:28:49.463Z,26.44
2022-08-19T08:29:51.922Z,26.43
2022-08-19T08:30:54.172Z,26.39
2022-08-19T08:31:59.618Z,26.31
2022-08-19T08:33:02.651Z,26.44
2022-08-19T08:34:05.241Z,26.61
2022-08-19T08:35:10.372Z,26.53
2022-08-19T08:36:13.418Z,26.59
2022-08-19T08:37:16.254Z,26.72
2022-08-19T08:38:18.964Z,26.83
2022-08-19T08:39:21.760Z,26.63
2022-08-19T08:40:31.084Z,25.77
2022-08-19T08:41:43.864Z,25.78
2022-08-19T08:42:52.555Z,25.65
2022-08-19T08:43:56.479Z,25.39
2022-08-19T08:45:01.960Z,25.83
2022-08-19T08:46:07.990Z,26.18
2022-08-19T08:47:15.793Z,25.59
2022-08-19T08:48:23.950Z,25.42
2022-08-19T08:49:36.024Z,25.26
2022-08-19T08:50:43.482Z,25.07
2022-08-19T08:51:59.261Z,25.11
2022-08-19T08:52:59.279Z,24.89
2022-08-19T08:54:05.390Z,25.03
2022-08-19T08:56:21.209Z,24.99
2022-08-19T08:57:45.491Z,25.49
2022-08-19T08:59:00.299Z,25.69
2022-08-19T09:00:06.482Z,25.83
2022-08-19T09:01:11.948Z,26.09
2022-08-19T09:02:14.335Z,25.75
2022-08-19T09:03:23.440Z,25.54
2022-08-19T09:04:25.842Z,25.27
2022-08-19T09:06:57.683Z,25.75
2022-08-19T09:08:06.791Z,25.55
2022-08-19T09:09:19.107Z,25.48
2022-08-19T09:10:33.214Z,25.86
2022-08-19T09:11:56.787Z,26.15
2022-08-19T09:13:19.934Z,25.85
2022-08-19T09:14:53.520Z,25.28
2022-08-19T09:17:13.371Z,25.54
2022-08-19T09:18:19.436Z,25.44
2022-08-19T09:19:22.539Z,25.66
2022-08-19T09:20:26.110Z,26.05
2022-08-19T09:21:30.587Z,26.19
2022-08-19T09:22:33.833Z,26.25
2022-08-19T09:23:37.420Z,26.21
2022-08-19T09:24:39.762Z,25.63
2022-08-19T09:25:42.110Z,25.28
2022-08-19T09:26:48.208Z,25.38
2022-08-19T09:27:51.148Z,25.14
2022-08-19T09:28:53.992Z,25.04
2022-08-19T09:29:56.267Z,25.50
2022-08-19T09:30:58.752Z,25.72
2022-08-19T09:32:01.417Z,25.53
2022-08-19T09:33:03.709Z,25.62
2022-08-19T09:34:06.761Z,25.87
2022-08-19T09:35:10.157Z,25.99
2022-08-19T09:36:31.087Z,26.09
2022-08-19T09:37:21.899Z,25.74
2022-08-19T09:38:26.151Z,25.32
2022-08-19T09:39:35.971Z,25.70
2022-08-19T09:40:38.239Z,25.83
2022-08-19T09:41:39.572Z,25.70
2022-08-19T09:42:50.178Z,25.80
2022-08-19T09:43:53.106Z,25.93
2022-08-19T09:44:55.722Z,25.96
2022-08-19T09:45:58.278Z,25.93
2022-08-19T09:47:01.290Z,25.81
2022-08-19T09:48:04.316Z,25.93
2022-08-19T09:49:07.001Z,25.81
2022-08-19T09:50:12.337Z,25.92
2022-08-19T09:51:24.937Z,25.69
2022-08-19T09:52:32.649Z,25.86
2022-08-19T09:53:31.456Z,25.86
2022-08-19T09:54:35.365Z,25.91
2022-08-19T09:55:44.023Z,25.84
2022-08-19T09:56:47.247Z,26.01
2022-08-19T09:57:49.687Z,25.81
2022-08-19T09:58:52.543Z,26.04
2022-08-19T09:59:55.262Z,26.13
2022-08-19T10:00:59.469Z,25.79
2022-08-19T10:02:03.904Z,25.21
2022-08-19T10:03:06.246Z,25.04
2022-08-19T10:04:09.546Z,25.32
2022-08-19T10:05:13.857Z,25.28
2022-08-19T10:06:18.719Z,25.58
2022-08-19T10:07:22.926Z,25.65
2022-08-19T10:08:30.687Z,25.68
2022-08-19T10:09:34.447Z,25.98
2022-08-19T10:10:37.139Z,25.35
2022-08-19T10:11:52.563Z,25.35
2022-08-19T10:12:49.196Z,25.15
2022-08-19T10:13:51.909Z,25.22
2022-08-19T10:14:54.237Z,24.98
2022-08-19T10:16:06.227Z,25.08
2022-08-19T10:17:19.131Z,25.06
2022-08-19T10:18:12.739Z,25.18
2022-08-19T10:19:15.011Z,25.08
2022-08-19T10:20:20.893Z,25.29
2022-08-19T10:21:29.355Z,25.39
2022-08-19T10:22:34.095Z,25.40
2022-08-19T10:23:38.666Z,25.63
2022-08-19T10:24:41.131Z,25.79
2022-08-19T10:25:44.491Z,25.97
2022-08-19T10:26:47.593Z,26.20
2022-08-19T10:27:49.821Z,26.15
2022-08-19T10:28:54.770Z,26.11
2022-08-19T10:29:57.174Z,25.74
2022-08-19T10:31:06.296Z,26.00
2022-08-19T10:32:10.042Z,25.71
2022-08-19T10:33:12.830Z,26.35
2022-08-19T10:34:27.563Z,26.05
2022-08-19T10:35:21.887Z,26.29
2022-08-19T10:36:28.508Z,26.35
2022-08-19T10:37:32.756Z,26.49
2022-08-19T10:38:36.341Z,26.38
2022-08-19T10:39:43.342Z,26.11
2022-08-19T10:40:43.732Z,26.32
2022-08-19T10:41:46.024Z,26.54
2022-08-19T10:42:48.330Z,26.06
2022-08-19T10:43:52.800Z,26.12
2022-08-19T10:44:55.241Z,26.25
2022-08-19T10:45:57.468Z,25.94
2022-08-19T10:47:00.117Z,26.09
2022-08-19T10:48:03.689Z,25.80
2022-08-19T10:49:06.375Z,26.01
2022-08-19T10:50:09.019Z,25.95
2022-08-19T10:51:22.652Z,26.02
2022-08-19T10:52:20.268Z,26.05
2022-08-19T10:53:23.187Z,26.13
2022-08-19T10:54:31.474Z,26.01
2022-08-19T10:55:30.717Z,25.85
2022-08-19T10:56:34.441Z,25.85
2022-08-19T10:58:41.174Z,26.02
2022-08-19T10:59:45.339Z,26.09
2022-08-19T11:00:58.881Z,26.10
2022-08-19T11:02:06.305Z,26.02
2022-08-19T11:03:11.825Z,26.05
2022-08-19T11:04:14.863Z,25.98
2022-08-19T11:05:17.594Z,25.99
2022-08-19T11:06:21.353Z,26.07
2022-08-19T11:07:23.864Z,26.09
2022-08-19T11:08:26.168Z,26.14
2022-08-19T11:09:34.005Z,26.04
2022-08-19T11:10:33.200Z,26.11
2022-08-19T11:11:38.454Z,26.14
2022-08-19T11:12:41.043Z,26.25
2022-08-19T11:13:44.288Z,26.21
2022-08-19T11:14:46.876Z,26.10
2022-08-19T11:15:57.981Z,26.22
2022-08-19T11:17:01.138Z,26.06
2022-08-19T11:18:04.112Z,26.04
2022-08-19T11:19:10.048Z,25.96
2022-08-19T11:20:14.982Z,25.87
2022-08-19T11:21:21.095Z,26.00
2022-08-19T11:22:24.881Z,26.08
2022-08-19T11:23:29.043Z,26.16
2022-08-19T11:24:32.347Z,26.05
2022-08-19T11:25:34.869Z,26.08
2022-08-19T11:26:40.615Z,26.06
2022-08-19T11:27:43.305Z,26.20
2022-08-19T11:28:46.057Z,26.05
2022-08-19T11:29:48.641Z,26.14
2022-08-19T11:30:51.473Z,26.11
2022-08-19T11:31:54.536Z,26.13
2022-08-19T11:32:58.776Z,26.23
2022-08-19T11:34:03.942Z,26.18
2022-08-19T11:35:06.907Z,26.20
2022-08-19T11:36:11.636Z,26.18
2022-08-19T11:37:16.065Z,26.08
2022-08-19T11:38:18.364Z,26.06
2022-08-19T11:39:22.315Z,26.05
2022-08-19T11:40:25.074Z,26.21
2022-08-19T11:41:27.912Z,26.33
2022-08-19T11:42:30.793Z,26.22
2022-08-19T11:43:37.327Z,26.27
2022-08-19T11:44:38.553Z,26.27
2022-08-19T11:45:42.821Z,26.31
2022-08-19T11:46:47.160Z,26.43
2022-08-19T11:47:49.806Z,26.17
2022-08-19T11:48:52.112Z,26.36
2022-08-19T11:49:54.518Z,25.92
2022-08-19T11:50:56.958Z,26.21
2022-08-19T11:51:59.929Z,26.05
2022-08-19T11:53:02.185Z,25.96
2022-08-19T11:54:06.145Z,26.02
2022-08-19T11:55:09.189Z,25.66
2022-08-19T11:56:12.542Z,25.84
2022-08-19T11:57:14.770Z,25.98
2022-08-19T11:58:19.177Z,25.91
2022-08-19T11:59:23.633Z,25.90
2022-08-19T12:00:26.795Z,25.87
2022-08-19T12:01:29.534Z,25.92
2022-08-19T12:02:31.901Z,25.87
2022-08-19T12:03:34.771Z,25.70
2022-08-19T12:04:37.574Z,25.49
2022-08-19T12:05:42.937Z,25.50
2022-08-19T12:06:49.200Z,25.54
2022-08-19T12:07:51.520Z,25.31
2022-08-19T12:08:53.985Z,25.30
2022-08-19T12:09:56.594Z,25.18
2022-08-19T12:11:01.922Z,25.21
2022-08-19T12:12:04.290Z,25.18
2022-08-19T12:13:10.581Z,25.12
2022-08-19T12:14:14.663Z,25.07
2022-08-19T12:15:17.422Z,24.98
2022-08-19T12:16:23.702Z,24.93
2022-08-19T12:17:27.221Z,24.80
2022-08-19T12:18:30.010Z,24.75
2022-08-19T12:19:32.576Z,24.59
2022-08-19T12:20:37.951Z,24.58
2022-08-19T12:21:43.004Z,24.69
2022-08-19T12:22:45.307Z,24.69
2022-08-19T12:23:51.685Z,24.64
2022-08-19T12:24:53.505Z,24.59
2022-08-19T12:25:57.550Z,24.50
2022-08-19T12:27:00.914Z,24.46
2022-08-19T12:28:05.110Z,24.49
2022-08-19T12:29:07.707Z,24.36
2022-08-19T12:30:14.198Z,24.45
2022-08-19T12:31:16.908Z,24.44
2022-08-19T12:32:19.158Z,24.24
2022-08-19T12:33:24.104Z,24.34
2022-08-19T12:34:26.563Z,24.40
2022-08-19T12:35:28.910Z,24.37
2022-08-19T12:36:31.777Z,24.43
2022-08-19T12:37:37.179Z,24.33
2022-08-19T12:38:43.933Z,24.25
2022-08-19T12:39:47.938Z,23.90
2022-08-19T12:40:58.336Z,24.25
2022-08-19T12:41:58.409Z,24.19
2022-08-19T12:43:01.462Z,24.20
2022-08-19T12:44:05.769Z,24.04
2022-08-19T12:45:12.000Z,24.06
2022-08-19T12:46:15.212Z,24.09
2022-08-19T12:47:20.784Z,24.07
2022-08-19T12:48:33.481Z,23.98
2022-08-19T12:49:52.740Z,24.02
2022-08-19T12:50:33.737Z,24.05
2022-08-19T12:51:36.364Z,24.15
2022-08-19T12:52:39.061Z,24.08
2022-08-19T12:53:41.900Z,24.13
2022-08-19T12:54:44.360Z,24.08
2022-08-19T12:55:46.968Z,24.08
2022-08-19T12:56:50.078Z,23.99
2022-08-19T12:57:52.485Z,24.11
2022-08-19T12:58:54.767Z,24.09
2022-08-19T12:59:57.056Z,24.16
2022-08-19T13:00:59.491Z,24.21
2022-08-19T13:02:02.323Z,24.12
2022-08-19T13:03:04.772Z,24.08
2022-08-19T13:04:07.760Z,23.61
2022-08-19T13:05:12.874Z,23.88
2022-08-19T13:06:15.987Z,23.93
2022-08-19T13:07:20.071Z,23.90
2022-08-19T13:08:24.472Z,23.90
2022-08-19T13:09:26.837Z,23.99
2022-08-19T13:10:33.555Z,23.85
2022-08-19T13:11:37.044Z,23.79
2022-08-19T13:12:40.179Z,23.90
2022-08-19T13:15:13.074Z,24.15
2022-08-19T13:16:21.669Z,24.03
2022-08-19T13:17:24.046Z,24.06
2022-08-19T13:18:26.508Z,24.08
2022-08-19T13:19:28.991Z,24.13
2022-08-19T13:20:33.419Z,23.99
2022-08-19T13:21:36.189Z,23.99
2022-08-19T13:22:39.504Z,23.73
2022-08-19T13:23:42.703Z,23.89
2022-08-19T13:24:47.469Z,24.01
2022-08-19T13:26:00.351Z,24.00
2022-08-19T13:27:08.902Z,24.11
2022-08-19T13:28:11.992Z,24.11
2022-08-19T13:29:15.552Z,24.02
2022-08-19T13:30:21.486Z,23.86
2022-08-19T13:31:25.943Z,23.91
2022-08-19T13:32:30.397Z,23.78
2022-08-19T13:33:33.513Z,23.74
2022-08-19T13:34:36.582Z,23.79
2022-08-19T13:35:49.829Z,23.76
2022-08-19T13:36:53.891Z,23.69
2022-08-19T13:37:58.143Z,23.62
2022-08-19T13:39:04.950Z,23.68
2022-08-19T13:40:11.255Z,23.90
2022-08-19T13:41:15.008Z,23.82
2022-08-19T13:42:17.496Z,23.97
2022-08-19T13:43:23.680Z,24.02
2022-08-19T13:44:26.381Z,24.03
2022-08-19T13:45:31.746Z,24.03
2022-08-19T13:46:36.013Z,23.99
2022-08-19T13:47:38.227Z,23.89
2022-08-19T13:48:41.079Z,23.78
2022-08-19T13:49:43.371Z,23.81
2022-08-19T13:50:46.050Z,23.66
2022-08-19T13:51:48.273Z,23.69
2022-08-19T13:52:50.623Z,23.84
2022-08-19T13:53:52.870Z,23.75
2022-08-19T13:54:55.772Z,23.77
2022-08-19T13:55:58.150Z,23.75
2022-08-19T13:57:00.516Z,23.87
2022-08-19T13:58:04.006Z,23.90
2022-08-19T13:59:06.468Z,23.93
2022-08-19T14:00:17.749Z,23.98
2022-08-19T14:01:24.443Z,23.95